sensor_id;sensor_type;location;lat;lon;timestamp;pressure;altitude;pressure_sealevel;temperature;humidity
48156;BME280;35568;48.104;11.782;2022-08-21T00:00:16;95502.43;;;17.05;63.51
48156;BME280;35568;48.104;11.782;2022-08-21T00:02:45;95502.07;;;17.07;63.50
48156;BME280;35568;48.104;11.782;2022-08-21T00:05:13;95498.45;;;16.96;63.70
48156;BME280;35568;48.104;11.782;2022-08-21T00:07:40;95496.67;;;16.93;63.84
48156;BME280;35568;48.104;11.782;2022-08-21T00:10:07;95494.17;;;17.16;63.68
48156;BME280;35568;48.104;11.782;2022-08-21T00:12:34;95494.71;;;16.98;63.43
48156;BME280;35568;48.104;11.782;2022-08-21T00:15:02;95494.53;;;16.96;63.46
48156;BME280;35568;48.104;11.782;2022-08-21T00:17:30;95495.47;;;16.95;63.34
48156;BME280;35568;48.104;11.782;2022-08-21T00:19:56;95491.79;;;16.83;63.58
48156;BME280;35568;48.104;11.782;2022-08-21T00:22:23;95491.88;;;16.84;63.49
48156;BME280;35568;48.104;11.782;2022-08-21T00:24:50;95491.81;;;16.99;63.41
48156;BME280;35568;48.104;11.782;2022-08-21T00:27:17;95494.56;;;16.88;63.62
48156;BME280;35568;48.104;11.782;2022-08-21T00:29:44;95498.66;;;16.80;63.85
48156;BME280;35568;48.104;11.782;2022-08-21T00:32:11;95501.42;;;16.79;63.78
48156;BME280;35568;48.104;11.782;2022-08-21T00:34:38;95499.19;;;16.79;63.67
48156;BME280;35568;48.104;11.782;2022-08-21T00:37:05;95498.90;;;16.75;63.67
48156;BME280;35568;48.104;11.782;2022-08-21T00:39:32;95497.96;;;17.09;63.50
48156;BME280;35568;48.104;11.782;2022-08-21T00:41:58;95492.18;;;16.46;63.70
48156;BME280;35568;48.104;11.782;2022-08-21T00:44:25;95491.48;;;16.75;63.52
48156;BME280;35568;48.104;11.782;2022-08-21T00:46:52;95493.70;;;16.56;63.79
48156;BME280;35568;48.104;11.782;2022-08-21T00:49:19;95492.90;;;16.36;63.62
48156;BME280;35568;48.104;11.782;2022-08-21T00:51:49;95490.02;;;16.80;63.60
48156;BME280;35568;48.104;11.782;2022-08-21T00:54:18;95492.11;;;16.50;63.64
48156;BME280;35568;48.104;11.782;2022-08-21T00:56:51;95488.21;;;16.44;63.75
48156;BME280;35568;48.104;11.782;2022-08-21T00:59:21;95487.95;;;16.44;63.62
48156;BME280;35568;48.104;11.782;2022-08-21T01:01:49;95485.07;;;16.62;63.69
48156;BME280;35568;48.104;11.782;2022-08-21T01:04:17;95483.53;;;16.26;63.75
48156;BME280;35568;48.104;11.782;2022-08-21T01:06:44;95483.54;;;16.54;63.72
48156;BME280;35568;48.104;11.782;2022-08-21T01:09:11;95481.29;;;16.24;63.67
48156;BME280;35568;48.104;11.782;2022-08-21T01:11:39;95476.17;;;16.39;63.76
48156;BME280;35568;48.104;11.782;2022-08-21T01:14:06;95476.44;;;16.44;63.54
48156;BME280;35568;48.104;11.782;2022-08-21T01:16:33;95471.77;;;16.07;63.76
48156;BME280;35568;48.104;11.782;2022-08-21T01:19:01;95471.73;;;16.26;63.67
48156;BME280;35568;48.104;11.782;2022-08-21T01:21:28;95468.56;;;16.22;63.52
48156;BME280;35568;48.104;11.782;2022-08-21T01:23:56;95468.99;;;16.07;63.91
48156;BME280;35568;48.104;11.782;2022-08-21T01:26:26;95464.87;;;16.17;63.65
48156;BME280;35568;48.104;11.782;2022-08-21T01:28:58;95464.37;;;16.20;63.48
48156;BME280;35568;48.104;11.782;2022-08-21T01:31:28;95462.73;;;15.88;63.39
48156;BME280;35568;48.104;11.782;2022-08-21T01:33:56;95465.69;;;16.01;63.71
48156;BME280;35568;48.104;11.782;2022-08-21T01:36:23;95469.48;;;16.02;63.62
48156;BME280;35568;48.104;11.782;2022-08-21T01:38:51;95470.85;;;15.99;63.52
48156;BME280;35568;48.104;11.782;2022-08-21T01:41:18;95469.14;;;15.96;63.64
48156;BME280;35568;48.104;11.782;2022-08-21T01:43:45;95470.45;;;16.05;63.92
48156;BME280;35568;48.104;11.782;2022-08-21T01:46:12;95469.11;;;15.85;63.80
48156;BME280;35568;48.104;11.782;2022-08-21T01:48:40;95471.33;;;15.94;63.58
48156;BME280;35568;48.104;11.782;2022-08-21T01:51:08;95469.69;;;15.84;63.43
48156;BME280;35568;48.104;11.782;2022-08-21T01:53:36;95469.56;;;15.81;63.59
48156;BME280;35568;48.104;11.782;2022-08-21T01:56:05;95465.70;;;15.86;63.41
48156;BME280;35568;48.104;11.782;2022-08-21T01:58:33;95463.14;;;15.82;63.40
48156;BME280;35568;48.104;11.782;2022-08-21T02:01:00;95463.22;;;15.70;63.61
48156;BME280;35568;48.104;11.782;2022-08-21T02:03:28;95464.83;;;16.01;63.46
48156;BME280;35568;48.104;11.782;2022-08-21T02:05:56;95462.61;;;16.00;63.44
48156;BME280;35568;48.104;11.782;2022-08-21T02:08:23;95468.54;;;15.73;63.54
48156;BME280;35568;48.104;11.782;2022-08-21T02:10:51;95461.89;;;15.69;63.54
48156;BME280;35568;48.104;11.782;2022-08-21T02:13:18;95461.51;;;15.86;63.64
48156;BME280;35568;48.104;11.782;2022-08-21T02:15:44;95461.96;;;15.71;63.42
48156;BME280;35568;48.104;11.782;2022-08-21T02:18:11;95462.01;;;15.64;63.37
48156;BME280;35568;48.104;11.782;2022-08-21T02:20:41;95456.64;;;15.70;63.12
48156;BME280;35568;48.104;11.782;2022-08-21T02:23:10;95456.62;;;15.56;63.47
48156;BME280;35568;48.104;11.782;2022-08-21T02:25:37;95457.41;;;15.55;63.31
48156;BME280;35568;48.104;11.782;2022-08-21T02:28:07;95454.95;;;15.76;63.36
48156;BME280;35568;48.104;11.782;2022-08-21T02:30:38;95453.46;;;15.51;63.29
48156;BME280;35568;48.104;11.782;2022-08-21T02:33:07;95452.11;;;15.32;63.57
48156;BME280;35568;48.104;11.782;2022-08-21T02:35:34;95451.23;;;15.64;63.27
48156;BME280;35568;48.104;11.782;2022-08-21T02:38:04;95449.43;;;15.28;63.42
48156;BME280;35568;48.104;11.782;2022-08-21T02:40:35;95450.78;;;15.49;63.43
48156;BME280;35568;48.104;11.782;2022-08-21T02:43:03;95448.19;;;15.34;63.15
48156;BME280;35568;48.104;11.782;2022-08-21T02:45:32;95446.62;;;15.25;63.34
48156;BME280;35568;48.104;11.782;2022-08-21T02:48:01;95449.37;;;15.69;63.27
48156;BME280;35568;48.104;11.782;2022-08-21T02:50:31;95449.82;;;15.14;63.33
48156;BME280;35568;48.104;11.782;2022-08-21T02:52:59;95449.66;;;15.34;63.33
48156;BME280;35568;48.104;11.782;2022-08-21T02:55:29;95450.53;;;15.51;63.54
48156;BME280;35568;48.104;11.782;2022-08-21T02:57:58;95450.43;;;15.33;63.24
48156;BME280;35568;48.104;11.782;2022-08-21T03:03:01;95453.30;;;15.36;62.60
48156;BME280;35568;48.104;11.782;2022-08-21T03:05:29;95452.23;;;15.34;62.97
48156;BME280;35568;48.104;11.782;2022-08-21T03:07:57;95452.41;;;15.44;63.19
48156;BME280;35568;48.104;11.782;2022-08-21T03:10:25;95450.72;;;15.07;63.42
48156;BME280;35568;48.104;11.782;2022-08-21T03:12:52;95449.58;;;15.09;63.21
48156;BME280;35568;48.104;11.782;2022-08-21T03:15:21;95450.80;;;15.19;62.94
48156;BME280;35568;48.104;11.782;2022-08-21T03:17:48;95452.21;;;15.33;63.22
48156;BME280;35568;48.104;11.782;2022-08-21T03:20:20;95450.39;;;15.19;63.55
48156;BME280;35568;48.104;11.782;2022-08-21T03:22:48;95449.64;;;15.11;63.74
48156;BME280;35568;48.104;11.782;2022-08-21T03:25:14;95450.63;;;14.89;63.42
48156;BME280;35568;48.104;11.782;2022-08-21T03:27:41;95449.53;;;14.93;63.33
48156;BME280;35568;48.104;11.782;2022-08-21T03:30:09;95445.55;;;15.26;63.06
48156;BME280;35568;48.104;11.782;2022-08-21T03:32:37;95449.00;;;15.03;62.94
48156;BME280;35568;48.104;11.782;2022-08-21T03:35:05;95449.91;;;15.13;63.15
48156;BME280;35568;48.104;11.782;2022-08-21T03:37:32;95446.98;;;14.79;63.45
48156;BME280;35568;48.104;11.782;2022-08-21T03:39:59;95447.55;;;14.81;63.31
48156;BME280;35568;48.104;11.782;2022-08-21T03:42:26;95454.20;;;15.12;63.10
48156;BME280;35568;48.104;11.782;2022-08-21T03:44:53;95459.07;;;14.88;62.94
48156;BME280;35568;48.104;11.782;2022-08-21T03:47:20;95462.33;;;15.06;62.57
48156;BME280;35568;48.104;11.782;2022-08-21T03:49:47;95461.60;;;15.36;62.59
48156;BME280;35568;48.104;11.782;2022-08-21T03:52:14;95462.16;;;15.37;62.44
48156;BME280;35568;48.104;11.782;2022-08-21T03:54:41;95464.07;;;14.92;62.58
48156;BME280;35568;48.104;11.782;2022-08-21T03:57:09;95463.45;;;15.13;62.62
48156;BME280;35568;48.104;11.782;2022-08-21T03:59:36;95463.68;;;14.75;62.81
48156;BME280;35568;48.104;11.782;2022-08-21T04:02:05;95461.46;;;14.85;63.21
48156;BME280;35568;48.104;11.782;2022-08-21T04:04:34;95461.90;;;14.89;63.06
48156;BME280;35568;48.104;11.782;2022-08-21T04:07:02;95464.79;;;15.11;62.86
48156;BME280;35568;48.104;11.782;2022-08-21T04:09:30;95465.49;;;15.10;62.59
48156;BME280;35568;48.104;11.782;2022-08-21T04:11:57;95467.59;;;14.87;63.05
48156;BME280;35568;48.104;11.782;2022-08-21T04:14:24;95468.84;;;15.00;62.88
48156;BME280;35568;48.104;11.782;2022-08-21T04:16:51;95468.13;;;14.97;62.60
48156;BME280;35568;48.104;11.782;2022-08-21T04:19:18;95465.76;;;14.82;62.75
48156;BME280;35568;48.104;11.782;2022-08-21T04:21:45;95466.58;;;14.73;63.17
48156;BME280;35568;48.104;11.782;2022-08-21T04:24:11;95470.71;;;14.97;63.09
48156;BME280;35568;48.104;11.782;2022-08-21T04:26:38;95474.64;;;14.69;63.00
48156;BME280;35568;48.104;11.782;2022-08-21T04:29:05;95479.81;;;14.69;63.20
48156;BME280;35568;48.104;11.782;2022-08-21T04:31:33;95484.28;;;14.72;62.99
48156;BME280;35568;48.104;11.782;2022-08-21T04:34:00;95485.13;;;14.75;63.48
48156;BME280;35568;48.104;11.782;2022-08-21T04:36:27;95487.65;;;14.46;63.72
48156;BME280;35568;48.104;11.782;2022-08-21T04:38:54;95490.96;;;14.87;63.34
48156;BME280;35568;48.104;11.782;2022-08-21T04:41:21;95495.25;;;14.88;62.86
48156;BME280;35568;48.104;11.782;2022-08-21T04:43:48;95499.09;;;14.77;63.13
48156;BME280;35568;48.104;11.782;2022-08-21T04:46:15;95500.50;;;14.76;63.12
48156;BME280;35568;48.104;11.782;2022-08-21T04:48:43;95499.25;;;14.81;63.01
48156;BME280;35568;48.104;11.782;2022-08-21T04:51:12;95499.79;;;14.75;63.11
48156;BME280;35568;48.104;11.782;2022-08-21T04:53:44;95496.24;;;14.82;63.13
48156;BME280;35568;48.104;11.782;2022-08-21T04:56:14;95499.49;;;14.90;62.94
48156;BME280;35568;48.104;11.782;2022-08-21T04:58:42;95494.17;;;14.91;62.80
48156;BME280;35568;48.104;11.782;2022-08-21T05:01:14;95495.41;;;14.96;62.66
48156;BME280;35568;48.104;11.782;2022-08-21T05:03:42;95497.47;;;14.93;62.80
48156;BME280;35568;48.104;11.782;2022-08-21T05:06:11;95499.47;;;15.06;62.72
48156;BME280;35568;48.104;11.782;2022-08-21T05:08:41;95501.51;;;15.07;62.76
48156;BME280;35568;48.104;11.782;2022-08-21T05:11:08;95503.08;;;14.86;62.13
48156;BME280;35568;48.104;11.782;2022-08-21T05:13:36;95503.26;;;15.24;61.56
48156;BME280;35568;48.104;11.782;2022-08-21T05:16:03;95501.52;;;15.41;61.27
48156;BME280;35568;48.104;11.782;2022-08-21T05:18:30;95501.33;;;15.48;61.05
48156;BME280;35568;48.104;11.782;2022-08-21T05:20:57;95505.75;;;16.02;60.97
48156;BME280;35568;48.104;11.782;2022-08-21T05:23:24;95506.70;;;15.53;61.45
48156;BME280;35568;48.104;11.782;2022-08-21T05:25:52;95504.88;;;15.45;61.34
48156;BME280;35568;48.104;11.782;2022-08-21T05:28:19;95506.30;;;15.60;61.53
48156;BME280;35568;48.104;11.782;2022-08-21T05:30:46;95509.50;;;15.39;61.80
48156;BME280;35568;48.104;11.782;2022-08-21T05:33:13;95511.82;;;15.73;61.21
48156;BME280;35568;48.104;11.782;2022-08-21T05:35:40;95509.12;;;16.39;60.91
48156;BME280;35568;48.104;11.782;2022-08-21T05:38:07;95512.48;;;16.16;60.66
48156;BME280;35568;48.104;11.782;2022-08-21T05:40:34;95519.08;;;16.48;60.20
48156;BME280;35568;48.104;11.782;2022-08-21T05:43:01;95521.11;;;16.60;59.61
48156;BME280;35568;48.104;11.782;2022-08-21T05:45:31;95525.62;;;16.66;59.50
48156;BME280;35568;48.104;11.782;2022-08-21T05:48:04;95529.44;;;16.80;59.19
48156;BME280;35568;48.104;11.782;2022-08-21T05:50:31;95530.09;;;16.81;59.41
48156;BME280;35568;48.104;11.782;2022-08-21T05:52:58;95528.56;;;16.79;59.55
48156;BME280;35568;48.104;11.782;2022-08-21T05:55:26;95529.82;;;17.11;59.43
48156;BME280;35568;48.104;11.782;2022-08-21T05:57:52;95526.92;;;17.10;58.95
48156;BME280;35568;48.104;11.782;2022-08-21T06:00:19;95530.77;;;17.15;58.95
48156;BME280;35568;48.104;11.782;2022-08-21T06:02:46;95531.57;;;17.26;58.67
48156;BME280;35568;48.104;11.782;2022-08-21T06:05:13;95528.36;;;17.18;58.46
48156;BME280;35568;48.104;11.782;2022-08-21T06:07:40;95526.97;;;17.33;58.59
48156;BME280;35568;48.104;11.782;2022-08-21T06:10:07;95526.88;;;17.60;58.00
48156;BME280;35568;48.104;11.782;2022-08-21T06:12:34;95526.57;;;17.80;57.94
48156;BME280;35568;48.104;11.782;2022-08-21T06:15:01;95529.89;;;17.72;57.25
48156;BME280;35568;48.104;11.782;2022-08-21T06:17:27;95528.31;;;17.88;57.15
48156;BME280;35568;48.104;11.782;2022-08-21T06:19:55;95530.90;;;18.01;56.68
48156;BME280;35568;48.104;11.782;2022-08-21T06:22:22;95529.63;;;18.04;56.72
48156;BME280;35568;48.104;11.782;2022-08-21T06:24:49;95531.08;;;18.48;56.51
48156;BME280;35568;48.104;11.782;2022-08-21T06:27:16;95529.95;;;18.47;56.38
48156;BME280;35568;48.104;11.782;2022-08-21T06:29:43;95526.16;;;18.59;55.29
48156;BME280;35568;48.104;11.782;2022-08-21T06:32:11;95525.08;;;18.78;55.45
48156;BME280;35568;48.104;11.782;2022-08-21T06:34:39;95522.77;;;18.99;55.02
48156;BME280;35568;48.104;11.782;2022-08-21T06:37:06;95519.90;;;19.23;54.79
48156;BME280;35568;48.104;11.782;2022-08-21T06:39:34;95520.63;;;18.96;55.06
48156;BME280;35568;48.104;11.782;2022-08-21T06:42:02;95519.16;;;19.13;54.88
48156;BME280;35568;48.104;11.782;2022-08-21T06:44:30;95519.75;;;19.47;53.99
48156;BME280;35568;48.104;11.782;2022-08-21T06:46:57;95519.23;;;19.53;53.90
48156;BME280;35568;48.104;11.782;2022-08-21T06:49:23;95520.44;;;18.98;53.96
48156;BME280;35568;48.104;11.782;2022-08-21T06:51:50;95518.90;;;19.80;53.28
48156;BME280;35568;48.104;11.782;2022-08-21T06:54:17;95518.01;;;19.99;53.13
48156;BME280;35568;48.104;11.782;2022-08-21T06:56:44;95513.08;;;19.89;52.20
48156;BME280;35568;48.104;11.782;2022-08-21T06:59:11;95509.25;;;19.64;53.15
48156;BME280;35568;48.104;11.782;2022-08-21T07:01:37;95509.28;;;19.81;51.93
48156;BME280;35568;48.104;11.782;2022-08-21T07:04:04;95507.73;;;19.64;52.62
48156;BME280;35568;48.104;11.782;2022-08-21T07:06:31;95508.76;;;20.17;52.54
48156;BME280;35568;48.104;11.782;2022-08-21T07:08:58;95508.43;;;20.07;52.75
48156;BME280;35568;48.104;11.782;2022-08-21T07:11:25;95505.62;;;20.15;51.35
48156;BME280;35568;48.104;11.782;2022-08-21T07:13:52;95504.42;;;20.29;51.57
48156;BME280;35568;48.104;11.782;2022-08-21T07:16:19;95503.45;;;20.50;51.57
48156;BME280;35568;48.104;11.782;2022-08-21T07:18:46;95503.88;;;20.57;49.44
48156;BME280;35568;48.104;11.782;2022-08-21T07:21:12;95503.19;;;20.49;49.55
48156;BME280;35568;48.104;11.782;2022-08-21T07:23:42;95503.60;;;20.40;49.07
48156;BME280;35568;48.104;11.782;2022-08-21T07:26:11;95502.73;;;20.82;49.05
48156;BME280;35568;48.104;11.782;2022-08-21T07:28:38;95504.33;;;21.26;47.72
48156;BME280;35568;48.104;11.782;2022-08-21T07:31:05;95503.42;;;21.38;47.28
48156;BME280;35568;48.104;11.782;2022-08-21T07:33:33;95505.40;;;21.64;47.15
48156;BME280;35568;48.104;11.782;2022-08-21T07:36:00;95506.49;;;21.80;46.10
48156;BME280;35568;48.104;11.782;2022-08-21T07:38:27;95507.87;;;22.36;45.85
48156;BME280;35568;48.104;11.782;2022-08-21T07:40:55;95505.71;;;22.67;45.50
48156;BME280;35568;48.104;11.782;2022-08-21T07:43:23;95503.32;;;21.92;45.96
48156;BME280;35568;48.104;11.782;2022-08-21T07:45:50;95503.45;;;22.67;45.78
48156;BME280;35568;48.104;11.782;2022-08-21T07:48:17;95504.52;;;22.77;43.36
48156;BME280;35568;48.104;11.782;2022-08-21T07:50:44;95498.61;;;23.37;44.92
48156;BME280;35568;48.104;11.782;2022-08-21T07:53:11;95495.82;;;23.12;44.40
48156;BME280;35568;48.104;11.782;2022-08-21T07:55:38;95492.23;;;24.32;44.13
48156;BME280;35568;48.104;11.782;2022-08-21T07:58:05;95489.74;;;23.61;42.93
48156;BME280;35568;48.104;11.782;2022-08-21T08:00:33;95486.60;;;23.58;42.04
48156;BME280;35568;48.104;11.782;2022-08-21T08:03:00;95487.03;;;23.49;42.66
48156;BME280;35568;48.104;11.782;2022-08-21T08:05:29;95482.95;;;23.88;41.51
48156;BME280;35568;48.104;11.782;2022-08-21T08:07:57;95483.34;;;24.10;41.68
48156;BME280;35568;48.104;11.782;2022-08-21T08:10:25;95479.45;;;24.49;40.80
48156;BME280;35568;48.104;11.782;2022-08-21T08:12:52;95478.29;;;24.36;40.50
48156;BME280;35568;48.104;11.782;2022-08-21T08:15:22;95476.52;;;24.96;39.76
48156;BME280;35568;48.104;11.782;2022-08-21T08:17:49;95478.47;;;25.05;39.03
48156;BME280;35568;48.104;11.782;2022-08-21T08:20:16;95477.58;;;24.97;39.50
48156;BME280;35568;48.104;11.782;2022-08-21T08:22:43;95476.21;;;24.66;38.83
48156;BME280;35568;48.104;11.782;2022-08-21T08:25:12;95472.30;;;24.28;39.30
48156;BME280;35568;48.104;11.782;2022-08-21T08:27:40;95472.91;;;24.84;40.13
48156;BME280;35568;48.104;11.782;2022-08-21T08:30:10;95472.48;;;24.73;39.35
48156;BME280;35568;48.104;11.782;2022-08-21T08:32:37;95472.63;;;25.03;39.03
48156;BME280;35568;48.104;11.782;2022-08-21T08:35:05;95469.01;;;25.60;39.32
48156;BME280;35568;48.104;11.782;2022-08-21T08:37:33;95469.36;;;26.51;38.40
48156;BME280;35568;48.104;11.782;2022-08-21T08:40:00;95469.78;;;26.44;37.71
48156;BME280;35568;48.104;11.782;2022-08-21T08:42:29;95465.40;;;26.22;37.88
48156;BME280;35568;48.104;11.782;2022-08-21T08:44:59;95470.04;;;26.30;38.88
48156;BME280;35568;48.104;11.782;2022-08-21T08:47:30;95468.44;;;26.95;37.14
48156;BME280;35568;48.104;11.782;2022-08-21T08:50:03;95470.27;;;27.10;36.81
48156;BME280;35568;48.104;11.782;2022-08-21T08:52:33;95471.81;;;26.79;37.60
48156;BME280;35568;48.104;11.782;2022-08-21T08:55:04;95473.44;;;26.75;36.65
48156;BME280;35568;48.104;11.782;2022-08-21T08:57:32;95474.42;;;26.58;35.79
48156;BME280;35568;48.104;11.782;2022-08-21T09:00:04;95470.34;;;26.65;35.37
48156;BME280;35568;48.104;11.782;2022-08-21T09:02:31;95470.84;;;27.13;35.04
48156;BME280;35568;48.104;11.782;2022-08-21T09:04:59;95472.21;;;26.79;35.26
48156;BME280;35568;48.104;11.782;2022-08-21T09:07:34;95472.91;;;27.02;35.23
48156;BME280;35568;48.104;11.782;2022-08-21T09:10:11;95469.73;;;27.22;34.35
48156;BME280;35568;48.104;11.782;2022-08-21T09:12:48;95469.59;;;27.26;34.60
48156;BME280;35568;48.104;11.782;2022-08-21T09:15:23;95467.42;;;27.58;33.66
48156;BME280;35568;48.104;11.782;2022-08-21T09:18:05;95466.94;;;28.01;33.64
48156;BME280;35568;48.104;11.782;2022-08-21T09:20:41;95461.70;;;28.43;33.22
48156;BME280;35568;48.104;11.782;2022-08-21T09:23:22;95462.63;;;27.91;32.88
48156;BME280;35568;48.104;11.782;2022-08-21T09:25:58;95463.56;;;28.42;32.06
48156;BME280;35568;48.104;11.782;2022-08-21T09:28:32;95462.77;;;28.50;33.23
48156;BME280;35568;48.104;11.782;2022-08-21T09:31:01;95452.46;;;29.39;30.49
48156;BME280;35568;48.104;11.782;2022-08-21T09:33:29;95454.64;;;28.86;31.52
48156;BME280;35568;48.104;11.782;2022-08-21T09:35:56;95453.81;;;28.13;31.51
48156;BME280;35568;48.104;11.782;2022-08-21T09:38:28;95457.43;;;28.62;32.87
48156;BME280;35568;48.104;11.782;2022-08-21T09:40:59;95455.20;;;29.18;30.97
48156;BME280;35568;48.104;11.782;2022-08-21T09:43:26;95453.73;;;29.71;31.59
48156;BME280;35568;48.104;11.782;2022-08-21T09:46:34;95454.59;;;28.89;31.77
48156;BME280;35568;48.104;11.782;2022-08-21T09:49:04;95451.17;;;28.79;31.49
48156;BME280;35568;48.104;11.782;2022-08-21T09:51:37;95455.60;;;29.13;31.76
48156;BME280;35568;48.104;11.782;2022-08-21T09:54:16;95455.48;;;28.09;32.21
48156;BME280;35568;48.104;11.782;2022-08-21T09:56:54;95453.98;;;27.17;32.20
48156;BME280;35568;48.104;11.782;2022-08-21T09:59:29;95450.83;;;28.02;33.59
48156;BME280;35568;48.104;11.782;2022-08-21T10:01:59;95448.32;;;28.19;31.66
48156;BME280;35568;48.104;11.782;2022-08-21T10:04:29;95445.26;;;29.26;30.71
48156;BME280;35568;48.104;11.782;2022-08-21T10:07:06;95439.50;;;30.45;30.48
48156;BME280;35568;48.104;11.782;2022-08-21T10:09:34;95435.38;;;30.45;28.89
48156;BME280;35568;48.104;11.782;2022-08-21T10:12:10;95437.18;;;31.26;28.23
48156;BME280;35568;48.104;11.782;2022-08-21T10:14:47;95434.53;;;30.47;29.18
48156;BME280;35568;48.104;11.782;2022-08-21T10:17:22;95438.34;;;29.73;30.47
48156;BME280;35568;48.104;11.782;2022-08-21T10:19:59;95435.77;;;30.55;29.81
48156;BME280;35568;48.104;11.782;2022-08-21T10:22:36;95437.11;;;31.27;27.14
48156;BME280;35568;48.104;11.782;2022-08-21T10:25:12;95436.50;;;30.32;28.81
48156;BME280;35568;48.104;11.782;2022-08-21T10:27:54;95432.16;;;29.50;28.62
48156;BME280;35568;48.104;11.782;2022-08-21T10:30:35;95434.34;;;28.49;29.16
48156;BME280;35568;48.104;11.782;2022-08-21T10:33:13;95432.24;;;28.61;30.93
48156;BME280;35568;48.104;11.782;2022-08-21T10:35:48;95430.54;;;29.34;31.49
48156;BME280;35568;48.104;11.782;2022-08-21T10:38:39;95429.07;;;30.65;28.86
48156;BME280;35568;48.104;11.782;2022-08-21T10:41:16;95428.94;;;29.90;30.37
48156;BME280;35568;48.104;11.782;2022-08-21T10:43:50;95425.94;;;29.44;30.41
48156;BME280;35568;48.104;11.782;2022-08-21T10:46:26;95424.36;;;28.52;30.59
48156;BME280;35568;48.104;11.782;2022-08-21T10:49:02;95422.48;;;28.27;31.66
48156;BME280;35568;48.104;11.782;2022-08-21T10:51:40;95423.70;;;27.80;30.41
48156;BME280;35568;48.104;11.782;2022-08-21T10:54:14;95424.39;;;27.33;32.04
48156;BME280;35568;48.104;11.782;2022-08-21T10:56:47;95423.18;;;28.32;32.11
48156;BME280;35568;48.104;11.782;2022-08-21T10:59:25;95425.62;;;28.99;31.35
48156;BME280;35568;48.104;11.782;2022-08-21T11:01:58;95423.59;;;28.38;31.79
48156;BME280;35568;48.104;11.782;2022-08-21T11:04:31;95417.48;;;28.48;32.31
48156;BME280;35568;48.104;11.782;2022-08-21T11:07:06;95416.50;;;28.39;33.16
48156;BME280;35568;48.104;11.782;2022-08-21T11:09:36;95418.19;;;27.86;33.35
48156;BME280;35568;48.104;11.782;2022-08-21T11:12:17;95415.95;;;27.72;32.49
48156;BME280;35568;48.104;11.782;2022-08-21T11:14:54;95416.55;;;27.52;32.78
48156;BME280;35568;48.104;11.782;2022-08-21T11:17:30;95414.17;;;27.38;33.34
48156;BME280;35568;48.104;11.782;2022-08-21T11:20:03;95413.86;;;27.35;33.51
48156;BME280;35568;48.104;11.782;2022-08-21T11:22:36;95412.15;;;27.32;33.39
48156;BME280;35568;48.104;11.782;2022-08-21T11:25:11;95408.78;;;26.87;34.05
48156;BME280;35568;48.104;11.782;2022-08-21T11:27:45;95407.42;;;27.18;34.17
48156;BME280;35568;48.104;11.782;2022-08-21T11:30:14;95407.54;;;27.00;34.45
48156;BME280;35568;48.104;11.782;2022-08-21T11:32:53;95403.80;;;26.31;35.99
48156;BME280;35568;48.104;11.782;2022-08-21T11:35:33;95394.84;;;27.57;34.11
48156;BME280;35568;48.104;11.782;2022-08-21T11:38:11;95388.30;;;28.91;33.41
48156;BME280;35568;48.104;11.782;2022-08-21T11:40:54;95383.54;;;29.44;32.04
48156;BME280;35568;48.104;11.782;2022-08-21T11:43:34;95381.05;;;30.14;30.49
48156;BME280;35568;48.104;11.782;2022-08-21T11:46:11;95380.66;;;30.89;29.02
48156;BME280;35568;48.104;11.782;2022-08-21T11:48:48;95377.27;;;31.30;28.00
48156;BME280;35568;48.104;11.782;2022-08-21T11:51:24;95380.87;;;31.77;26.89
48156;BME280;35568;48.104;11.782;2022-08-21T11:54:02;95381.53;;;32.47;26.45
48156;BME280;35568;48.104;11.782;2022-08-21T11:56:33;95378.41;;;32.42;25.12
48156;BME280;35568;48.104;11.782;2022-08-21T11:59:06;95376.28;;;32.85;25.24
48156;BME280;35568;48.104;11.782;2022-08-21T12:01:37;95382.75;;;31.81;26.01
48156;BME280;35568;48.104;11.782;2022-08-21T12:04:10;95380.66;;;31.46;27.11
48156;BME280;35568;48.104;11.782;2022-08-21T12:06:43;95381.27;;;30.60;27.83
48156;BME280;35568;48.104;11.782;2022-08-21T12:09:26;95377.33;;;29.88;28.07
48156;BME280;35568;48.104;11.782;2022-08-21T12:12:02;95372.65;;;29.47;28.24
48156;BME280;35568;48.104;11.782;2022-08-21T12:14:37;95366.25;;;29.41;27.74
48156;BME280;35568;48.104;11.782;2022-08-21T12:17:06;95365.52;;;30.49;27.24
48156;BME280;35568;48.104;11.782;2022-08-21T12:19:33;95374.23;;;31.52;24.52
48156;BME280;35568;48.104;11.782;2022-08-21T12:22:09;95367.59;;;31.97;22.40
48156;BME280;35568;48.104;11.782;2022-08-21T12:24:38;95362.80;;;32.88;24.01
48156;BME280;35568;48.104;11.782;2022-08-21T12:27:19;95358.89;;;33.80;24.45
48156;BME280;35568;48.104;11.782;2022-08-21T12:29:50;95356.50;;;32.65;25.54
48156;BME280;35568;48.104;11.782;2022-08-21T12:32:24;95365.93;;;31.66;26.70
48156;BME280;35568;48.104;11.782;2022-08-21T12:34:54;95361.79;;;29.91;27.73
48156;BME280;35568;48.104;11.782;2022-08-21T12:37:27;95362.02;;;29.07;27.92
48156;BME280;35568;48.104;11.782;2022-08-21T12:39:59;95360.22;;;28.47;29.68
48156;BME280;35568;48.104;11.782;2022-08-21T12:42:33;95361.96;;;27.41;29.35
48156;BME280;35568;48.104;11.782;2022-08-21T12:45:13;95357.19;;;27.37;28.90
48156;BME280;35568;48.104;11.782;2022-08-21T12:47:48;95348.26;;;28.26;29.18
48156;BME280;35568;48.104;11.782;2022-08-21T12:50:19;95347.98;;;29.54;29.29
48156;BME280;35568;48.104;11.782;2022-08-21T12:52:55;95342.54;;;29.54;27.96
48156;BME280;35568;48.104;11.782;2022-08-21T12:55:28;95343.44;;;28.66;29.37
48156;BME280;35568;48.104;11.782;2022-08-21T12:57:56;95344.15;;;28.21;30.32
48156;BME280;35568;48.104;11.782;2022-08-21T13:00:26;95339.26;;;27.69;29.75
48156;BME280;35568;48.104;11.782;2022-08-21T13:02:54;95338.09;;;28.17;30.05
48156;BME280;35568;48.104;11.782;2022-08-21T13:05:29;95338.95;;;27.13;29.10